Voorhies, Louisiana
Current Conditions -  °F | °C
As of 3:53 AM on Friday 19 Dec 2014 (Local Time) from KESF Reporting Station
Light Rain Light Rain  
Wind Chill: 51°   Ceiling: 300
Heat Index: 51°   Visibility: 10mi
Dew Point: 50°   Wind: 6mph
Humidity: 96%   Direction: 60°ENE
Pressure: 30.08"   Gusts: NA
Location:  31.0386°N, 91.9871°W
Report Text: KESF 190953Z AUTO 06005KT 10SM -RA OVC003 11/10 A3008 RMK AO2 RAB50 SLP186 P0000 T01060100
Loading
Personal Weather Stations






























Interactive Weather Map New forecast layout! Learn more

10-Day Weather Forecast

Advertisements
Track Severe Weather on mobile